Time;durP1;ratioP1;P1;durP2;ratioP2;P2;SDS_P1;SDS_P2;PMS_P1;PMS_P2;Temp;Humidity;BMP_temperature;BMP_pressure;BME280_temperature;BME280_humidity;BME280_pressure;Samples;Min_cycle;Max_cycle;Signal;HPM_P1;HPM_P2
2022/09/15 00:00:18;;;;;;;18.75;9.75;;;;;;;11.60;91.45;97637.50;5075754;28;20135;-60
2022/09/15 00:02:44;;;;;;;21.92;11.00;;;;;;;11.57;91.79;97642.63;5093824;28;20125;-60
2022/09/15 00:05:11;;;;;;;19.83;10.65;;;;;;;11.54;92.00;97640.53;5094025;28;20093;-59
2022/09/15 00:07:36;;;;;;;21.42;10.05;;;;;;;11.52;92.11;97640.81;5093906;28;20036;-60
2022/09/15 00:10:04;;;;;;;21.50;11.52;;;;;;;11.51;91.98;97644.53;5093459;28;20043;-60
2022/09/15 00:12:29;;;;;;;15.80;10.05;;;;;;;11.51;92.58;97630.50;5093637;28;20040;-60
2022/09/15 00:14:55;;;;;;;19.23;11.02;;;;;;;11.52;92.47;97640.03;5075415;28;20036;-60
2022/09/15 00:17:21;;;;;;;20.65;10.68;;;;;;;11.52;92.52;97629.41;5091942;28;20131;-59
2022/09/15 00:19:46;;;;;;;16.98;8.88;;;;;;;11.54;91.97;97629.91;5092489;28;20503;-60
2022/09/15 00:22:12;;;;;;;19.80;10.13;;;;;;;11.48;92.70;97626.53;5093428;28;20032;-60
2022/09/15 00:24:39;;;;;;;23.80;11.10;;;;;;;11.49;92.67;97629.97;5093465;28;20040;-59
2022/09/15 00:27:05;;;;;;;26.08;12.23;;;;;;;11.50;93.21;97620.94;5093260;28;20052;-60
2022/09/15 00:29:31;;;;;;;31.73;12.90;;;;;;;11.47;93.29;97626.81;5092390;28;20059;-59
2022/09/15 00:31:56;;;;;;;55.03;14.20;;;;;;;11.41;93.38;97620.78;5075337;28;20063;-60
2022/09/15 00:34:22;;;;;;;53.75;14.15;;;;;;;11.40;94.21;97621.09;5093485;28;20040;-60
2022/09/15 00:36:47;;;;;;;62.45;15.13;;;;;;;11.37;94.25;97623.22;5093507;28;20511;-60
2022/09/15 00:39:13;;;;;;;47.95;14.65;;;;;;;11.39;94.23;97627.47;5093121;28;20036;-60
2022/09/15 00:41:39;;;;;;;54.97;16.05;;;;;;;11.39;94.17;97627.47;5092009;28;20493;-60
2022/09/15 00:44:34;;;;;;;151.13;20.30;;;;;;;11.40;94.28;97626.38;5091980;28;20032;-60
2022/09/15 00:47:01;;;;;;;144.00;22.63;;;;;;;11.43;94.37;97621.28;5092854;28;20062;-59
2022/09/15 00:49:30;;;;;;;66.15;17.40;;;;;;;11.44;94.42;97616.78;5091871;28;20126;-60
2022/09/15 00:52:05;;;;;;;56.55;15.23;;;;;;;11.44;94.27;97614.13;5074890;28;20039;-60
2022/09/15 00:54:41;;;;;;;132.50;19.83;;;;;;;11.42;94.25;97621.59;5091494;28;20046;-60
2022/09/15 00:57:14;;;;;;;83.75;19.58;;;;;;;11.45;94.30;97619.16;5092895;28;20047;-60
2022/09/15 00:59:41;;;;;;;106.93;18.60;;;;;;;11.44;94.09;97614.94;5092640;28;20036;-59
2022/09/15 01:02:28;;;;;;;78.72;17.05;;;;;;;11.42;94.14;97613.63;5092255;28;20040;-60
2022/09/15 01:04:55;;;;;;;46.65;15.35;;;;;;;11.44;94.43;97620.25;5092366;28;20035;-60
2022/09/15 01:07:25;;;;;;;64.07;16.15;;;;;;;11.43;94.23;97618.63;5090923;28;20036;-59
2022/09/15 01:09:59;;;;;;;92.40;17.35;;;;;;;11.42;94.28;97621.59;5091502;28;20067;-59
2022/09/15 01:12:26;;;;;;;42.53;14.55;;;;;;;11.41;94.25;97620.78;5091439;28;20048;-59
2022/09/15 01:14:52;;;;;;;65.47;17.17;;;;;;;11.44;94.80;97614.94;5091106;28;20153;-61
2022/09/15 01:17:53;;;;;;;81.97;16.67;;;;;;;11.42;94.68;97619.72;5090849;28;20146;-59
2022/09/15 01:21:00;;;;;;;44.78;15.85;;;;;;;11.44;95.27;97614.94;5063384;28;20063;-59
2022/09/15 01:23:58;;;;;;;28.58;13.35;;;;;;;11.46;94.71;97618.06;5060238;28;20044;-59
2022/09/15 01:26:42;;;;;;;26.88;12.88;;;;;;;11.46;94.78;97609.31;5021791;28;20105;-60
2022/09/15 01:29:38;;;;;;;25.15;11.00;;;;;;;11.43;94.33;97610.69;5092360;28;20044;-61
2022/09/15 01:35:02;;;;;;;27.38;11.68;;;;;;;11.46;94.17;97601.38;5090977;28;20040;-59
2022/09/15 01:37:31;;;;;;;25.08;12.05;;;;;;;11.49;94.17;97606.09;5091368;28;20044;-60
2022/09/15 01:39:59;;;;;;;30.23;12.57;;;;;;;11.52;94.03;97608.19;5090710;28;20047;-59
2022/09/15 01:42:25;;;;;;;30.50;12.95;;;;;;;11.54;93.87;97606.03;5092018;28;20039;-59
2022/09/15 01:44:55;;;;;;;27.50;11.85;;;;;;;11.55;93.58;97604.94;5090860;28;20043;-59
2022/09/15 01:47:21;;;;;;;;;;;;;;;11.56;93.83;97606.53;5090972;28;20036;-60
2022/09/15 01:49:51;;;;;;;28.42;12.55;;;;;;;11.58;93.88;97610.47;5090445;28;19920;-59
2022/09/15 01:52:20;;;;;;;47.60;13.80;;;;;;;11.57;93.65;97600.16;5090783;28;20036;-59
2022/09/15 01:54:48;;;;;;;53.92;14.70;;;;;;;11.58;93.67;97601.72;5090633;28;20389;-59
2022/09/15 01:57:20;;;;;;;30.65;12.73;;;;;;;11.59;93.53;97598.00;5090267;28;20047;-58
2022/09/15 01:59:47;;;;;;;29.85;12.23;;;;;;;11.63;93.95;97595.56;5091775;28;20044;-59
2022/09/15 02:02:23;;;;;;;27.65;11.95;;;;;;;11.62;93.61;97594.78;5090206;28;20040;-60
2022/09/15 02:04:53;;;;;;;28.52;12.00;;;;;;;11.65;93.05;97596.84;5073710;28;20492;-59
2022/09/15 02:07:27;;;;;;;32.40;12.77;;;;;;;11.70;93.17;97601.28;5090385;28;20093;-59
2022/09/15 02:10:01;;;;;;;29.90;11.73;;;;;;;11.70;92.61;97599.41;5091729;28;20040;-60
2022/09/15 02:12:38;;;;;;;27.38;12.25;;;;;;;11.71;93.13;97605.53;5091729;28;20507;-60
2022/09/15 02:15:13;;;;;;;25.08;12.77;;;;;;;11.68;92.73;97603.47;5091647;28;20585;-60
2022/09/15 02:17:54;;;;;;;28.73;12.50;;;;;;;11.71;93.01;97602.88;5089904;28;20397;-61
2022/09/15 02:20:40;;;;;;;;;;;;;;;11.66;92.94;97595.00;5074012;28;20121;-59
2022/09/15 02:23:11;;;;;;;35.20;13.45;;;;;;;11.65;93.14;97594.19;5090840;28;20296;-59
2022/09/15 02:25:42;;;;;;;31.67;11.88;;;;;;;11.65;92.99;97599.50;5089893;28;20047;-60
2022/09/15 02:28:07;;;;;;;;;;;;;;;11.67;93.23;97596.56;5090437;28;20405;-60
2022/09/15 02:30:35;;;;;;;24.40;12.05;;;;;;;11.71;93.04;97597.56;5089924;28;19924;-60
2022/09/15 02:33:05;;;;;;;25.52;12.10;;;;;;;11.70;92.90;97593.31;5073444;28;20122;-60
2022/09/15 02:35:33;;;;;;;29.40;12.30;;;;;;;11.69;92.60;97595.19;5090204;28;20070;-60
2022/09/15 02:38:00;;;;;;;21.55;11.73;;;;;;;11.67;92.86;97592.03;5090073;28;20048;-60
2022/09/15 02:40:27;;;;;;;28.35;11.95;;;;;;;11.72;92.75;97596.50;5090079;28;20040;-60
2022/09/15 02:42:54;;;;;;;25.40;11.38;;;;;;;11.70;92.78;97599.41;5091059;28;20493;-61
2022/09/15 02:45:20;;;;;;;29.05;12.45;;;;;;;11.74;92.89;97599.66;5073026;28;20586;-60
2022/09/15 02:47:46;;;;;;;28.95;10.88;;;;;;;11.77;92.93;97599.06;5091321;28;20044;-59
2022/09/15 02:50:12;;;;;;;22.55;12.05;;;;;;;11.77;92.54;97596.41;5092297;28;20051;-60
2022/09/15 02:52:37;;;;;;;24.25;11.98;;;;;;;11.77;92.65;97591.91;5095071;28;20048;-60
2022/09/15 02:55:04;;;;;;;25.88;11.35;;;;;;;11.80;92.33;97595.84;5095103;28;20036;-60
2022/09/15 02:57:29;;;;;;;28.45;10.82;;;;;;;11.81;92.09;97592.88;5095230;28;20075;-59
2022/09/15 03:00:27;;;;;;;29.63;11.60;;;;;;;11.82;92.17;97602.44;5095038;28;20509;-60
2022/09/15 03:02:52;;;;;;;23.30;11.90;;;;;;;11.73;92.76;97593.53;5091121;28;20046;-59
2022/09/15 03:05:20;;;;;;;28.92;11.68;;;;;;;11.74;92.57;97599.66;5095346;28;20040;-59
2022/09/15 03:07:46;;;;;;;20.52;10.52;;;;;;;11.75;92.61;97598.56;5093783;28;20040;-60
2022/09/15 03:10:12;;;;;;;24.88;11.80;;;;;;;11.75;92.74;97596.69;5093821;28;20157;-60
2022/09/15 03:12:38;;;;;;;24.83;10.82;;;;;;;11.76;92.77;97592.94;5095090;28;20048;-60
2022/09/15 03:15:06;;;;;;;21.60;10.02;;;;;;;11.76;92.62;97592.94;5095170;28;20040;-60
2022/09/15 03:17:36;;;;;;;21.08;10.40;;;;;;;11.78;92.84;97596.13;5076432;28;20428;-60
2022/09/15 03:20:03;;;;;;;22.88;12.05;;;;;;;11.82;92.62;97601.63;5095106;28;20123;-60
2022/09/15 03:22:29;;;;;;;20.40;11.13;;;;;;;11.85;92.26;97597.63;5094746;28;20044;-59
2022/09/15 03:24:55;;;;;;;28.90;10.85;;;;;;;11.86;91.95;97597.38;5094926;28;20405;-60
2022/09/15 03:27:20;;;;;;;20.35;10.13;;;;;;;11.89;92.21;97596.00;5093348;28;20050;-59
2022/09/15 03:29:47;;;;;;;21.45;10.57;;;;;;;11.92;91.57;97592.78;5093325;28;20047;-59
2022/09/15 03:32:12;;;;;;;22.80;11.27;;;;;;;11.82;92.07;97597.13;5094590;28;20501;-61
2022/09/15 03:34:38;;;;;;;17.17;9.70;;;;;;;11.87;91.94;97606.91;5093256;28;20138;-60
2022/09/15 03:37:04;;;;;;;21.65;10.88;;;;;;;11.92;91.83;97600.75;5087120;28;20059;-60
2022/09/15 03:39:30;;;;;;;20.67;10.68;;;;;;;11.96;91.90;97602.50;5083619;28;20512;-60
2022/09/15 03:41:55;;;;;;;22.92;10.27;;;;;;;12.00;91.77;97606.19;5084961;28;20053;-60
2022/09/15 03:44:22;;;;;;;19.80;9.95;;;;;;;12.01;91.38;97599.78;5081461;28;20029;-60
2022/09/15 03:46:48;;;;;;;17.92;9.90;;;;;;;12.03;91.28;97597.63;5084259;28;20532;-60
2022/09/15 03:49:13;;;;;;;16.33;9.43;;;;;;;12.09;90.92;97594.88;5078327;28;20064;-60
2022/09/15 03:51:39;;;;;;;17.17;10.15;;;;;;;12.11;90.57;97596.16;5056053;28;20055;-60
2022/09/15 03:54:05;;;;;;;17.83;9.38;;;;;;;12.10;90.37;97596.47;5074176;28;20044;-61
2022/09/15 03:56:31;;;;;;;16.80;9.05;;;;;;;12.08;90.21;97590.66;5072483;28;20084;-60
2022/09/15 03:58:58;;;;;;;18.48;8.75;;;;;;;12.11;90.29;97588.19;5073627;28;20454;-60
2022/09/15 04:01:24;;;;;;;15.48;8.75;;;;;;;12.10;90.30;97594.59;5073044;28;20075;-60
2022/09/15 04:03:50;;;;;;;18.52;10.10;;;;;;;12.08;90.63;97591.44;5073750;28;20497;-61
2022/09/15 04:06:16;;;;;;;15.57;8.65;;;;;;;12.11;90.67;97590.06;5072382;28;20063;-60
2022/09/15 04:08:42;;;;;;;15.23;8.48;;;;;;;12.11;90.05;97604.13;5073916;28;20044;-60
2022/09/15 04:11:10;;;;;;;16.30;8.57;;;;;;;12.09;90.42;97593.03;5072402;28;20055;-61
2022/09/15 04:13:37;;;;;;;16.48;9.15;;;;;;;12.12;90.84;97607.56;5073810;28;20044;-61
2022/09/15 04:16:05;;;;;;;19.70;8.93;;;;;;;12.10;90.37;97601.78;5073575;28;20087;-60
2022/09/15 04:18:32;;;;;;;15.02;9.35;;;;;;;12.01;91.24;97596.34;5073616;28;20040;-60
2022/09/15 04:20:59;;;;;;;16.48;9.52;;;;;;;12.05;91.25;97600.75;5073769;28;20053;-60
2022/09/15 04:23:25;;;;;;;19.20;9.05;;;;;;;12.00;91.10;97598.22;5073154;28;20468;-61
2022/09/15 04:25:55;;;;;;;26.10;9.35;;;;;;;11.96;91.29;97594.53;5073575;28;20045;-60
2022/09/15 04:28:22;;;;;;;24.58;10.50;;;;;;;11.98;91.63;97599.56;5073426;28;20148;-60
2022/09/15 04:30:48;;;;;;;17.70;9.38;;;;;;;11.95;91.46;97602.81;5071868;28;20417;-60
2022/09/15 04:33:13;;;;;;;25.05;10.07;;;;;;;11.99;91.42;97599.28;5073355;28;20041;-61
2022/09/15 04:35:39;;;;;;;29.50;10.35;;;;;;;11.97;91.60;97590.00;5072130;28;20048;-60
2022/09/15 04:38:05;;;;;;;23.40;9.93;;;;;;;11.99;91.51;97591.31;5073197;28;20051;-60
2022/09/15 04:40:30;;;;;;;23.33;9.43;;;;;;;11.96;91.58;97594.53;5073194;28;20036;-58
2022/09/15 04:42:56;;;;;;;19.52;10.63;;;;;;;11.97;92.04;97593.47;5072880;28;20032;-61
2022/09/15 04:45:22;;;;;;;17.20;9.65;;;;;;;11.99;91.71;97593.19;5072864;28;20047;-60
2022/09/15 04:47:50;;;;;;;17.23;8.95;;;;;;;12.02;91.36;97596.03;5071540;28;20041;-60
2022/09/15 04:50:16;;;;;;;19.20;9.32;;;;;;;12.07;91.05;97597.06;5071663;28;20044;-60
2022/09/15 04:52:41;;;;;;;16.58;9.63;;;;;;;12.07;91.02;97589.88;5072818;28;20178;-60
2022/09/15 04:55:08;;;;;;;20.88;9.32;;;;;;;12.07;91.12;97589.88;5071409;28;20480;-59
2022/09/15 04:57:33;;;;;;;18.55;8.70;;;;;;;12.14;90.76;97592.13;5072474;28;20413;-60
2022/09/15 04:59:59;;;;;;;20.33;10.57;;;;;;;12.15;91.17;97596.41;5072404;28;20055;-60
2022/09/15 05:02:25;;;;;;;19.60;9.77;;;;;;;12.22;90.95;97594.13;5072516;28;20062;-60
2022/09/15 05:04:51;;;;;;;17.48;9.75;;;;;;;12.24;90.67;97592.78;5072377;28;20044;-60
2022/09/15 05:07:17;;;;;;;15.55;10.07;;;;;;;12.33;89.75;97590.22;5054364;28;20469;-59
2022/09/15 05:09:43;;;;;;;15.88;9.23;;;;;;;12.32;89.46;97593.16;5072661;28;20131;-60
2022/09/15 05:12:08;;;;;;;16.27;9.23;;;;;;;12.33;89.66;97592.88;5078048;28;20052;-60
2022/09/15 05:14:34;;;;;;;16.48;9.20;;;;;;;12.35;89.54;97598.69;5083026;28;20401;-61
2022/09/15 05:16:59;;;;;;;13.15;8.38;;;;;;;12.43;88.54;97594.56;5089093;28;20117;-61
2022/09/15 05:19:25;;;;;;;15.85;9.35;;;;;;;12.41;88.03;97594.06;5092778;28;20050;-60
2022/09/15 05:21:51;;;;;;;15.15;8.43;;;;;;;12.45;88.18;97598.50;5092545;28;20048;-62
2022/09/15 05:24:16;;;;;;;13.45;8.15;;;;;;;12.50;87.81;97601.09;5092593;28;20036;-63
2022/09/15 05:26:42;;;;;;;15.80;8.68;;;;;;;12.54;87.78;97597.84;5092749;28;20370;-63
2022/09/15 05:29:07;;;;;;;13.30;8.25;;;;;;;12.54;87.24;97597.84;5092197;28;20063;-63
2022/09/15 05:31:33;;;;;;;16.63;8.77;;;;;;;12.55;87.29;97596.75;5090931;28;20113;-61
2022/09/15 05:34:01;;;;;;;13.45;8.18;;;;;;;12.56;87.43;97593.81;5090956;28;20035;-61
2022/09/15 05:36:27;;;;;;;15.55;9.13;;;;;;;12.60;87.60;97589.47;5086156;28;20378;-61
2022/09/15 05:38:55;;;;;;;15.07;9.23;;;;;;;12.62;87.77;97591.84;5090796;28;20052;-62
2022/09/15 05:41:21;;;;;;;13.00;8.57;;;;;;;12.70;87.48;97591.94;5091911;28;20402;-61
2022/09/15 05:43:48;;;;;;;13.23;8.80;;;;;;;12.77;86.73;97591.56;5091886;28;20048;-61
2022/09/15 05:46:15;;;;;;;11.95;8.52;;;;;;;12.78;86.77;97590.47;5091992;28;20134;-60
2022/09/15 05:48:40;;;;;;;13.85;8.90;;;;;;;12.83;85.99;97587.72;5090788;28;20463;-60
2022/09/15 05:51:06;;;;;;;14.65;9.10;;;;;;;12.86;85.75;97595.09;5085151;28;20041;-61
2022/09/15 05:53:33;;;;;;;12.57;8.20;;;;;;;12.86;85.60;97600.44;5079133;28;20043;-60
2022/09/15 05:56:04;;;;;;;14.50;8.85;;;;;;;12.90;85.46;97596.06;5081734;28;20040;-60
2022/09/15 05:58:30;;;;;;;15.48;8.95;;;;;;;12.99;85.25;97592.72;5077929;28;20040;-60
2022/09/15 06:00:56;;;;;;;15.55;10.38;;;;;;;13.02;83.95;97595.56;5077596;28;20039;-58
2022/09/15 06:03:22;;;;;;;12.27;8.50;;;;;;;13.07;83.81;97598.16;5071211;28;20044;-60
2022/09/15 06:05:49;;;;;;;13.50;9.15;;;;;;;13.02;85.05;97600.13;5053167;28;20722;-60
2022/09/15 06:08:15;;;;;;;14.25;9.60;;;;;;;13.04;85.16;97595.28;5070615;28;20051;-60
2022/09/15 06:10:41;;;;;;;16.60;10.50;;;;;;;13.11;84.97;97601.00;5079248;28;20108;-61
2022/09/15 06:13:07;;;;;;;19.27;11.85;;;;;;;13.16;84.37;97601.69;5086883;28;20044;-59
2022/09/15 06:15:33;;;;;;;15.68;11.30;;;;;;;13.17;84.28;97599.81;5091257;28;20119;-59
2022/09/15 06:17:58;;;;;;;18.58;12.25;;;;;;;13.24;83.98;97602.09;5089646;28;20056;-59
2022/09/15 06:20:24;;;;;;;16.05;10.27;;;;;;;13.23;83.13;97593.28;5090837;28;20040;-60
2022/09/15 06:22:51;;;;;;;14.20;9.77;;;;;;;13.35;83.10;97608.78;5073218;28;20453;-60
2022/09/15 06:25:17;;;;;;;15.50;11.18;;;;;;;13.37;82.75;97603.94;5090753;28;20119;-60
2022/09/15 06:27:43;;;;;;;16.02;11.68;;;;;;;13.42;82.85;97606.50;5087003;28;20043;-61
2022/09/15 06:30:09;;;;;;;16.20;10.48;;;;;;;13.45;83.03;97615.78;5079264;28;20040;-61
2022/09/15 06:32:35;;;;;;;16.23;11.18;;;;;;;13.48;83.27;97609.84;5079382;28;20074;-59
2022/09/15 06:35:05;;;;;;;15.63;10.48;;;;;;;13.48;83.22;97615.94;5081029;28;20068;-60
2022/09/15 06:37:35;;;;;;;15.98;10.77;;;;;;;13.52;82.50;97605.50;5078748;28;20088;-60
2022/09/15 06:40:02;;;;;;;16.65;11.45;;;;;;;13.53;82.72;97617.69;5078577;28;20040;-60
2022/09/15 06:42:30;;;;;;;14.48;10.27;;;;;;;13.49;82.37;97612.19;5079807;28;20047;-59
2022/09/15 06:44:55;;;;;;;16.15;11.02;;;;;;;13.61;83.18;97617.78;5080819;28;20412;-60
2022/09/15 06:47:21;;;;;;;14.23;9.10;;;;;;;13.70;81.85;97620.53;5080994;28;20036;-65
2022/09/15 06:49:46;;;;;;;14.95;9.60;;;;;;;13.81;81.72;97623.75;5071943;28;20148;-61
2022/09/15 06:52:12;;;;;;;15.23;9.90;;;;;;;13.79;80.51;97624.03;5071056;28;20136;-61
2022/09/15 06:54:38;;;;;;;13.10;9.75;;;;;;;13.73;80.32;97629.78;5069465;28;20576;-60
2022/09/15 06:57:04;;;;;;;13.27;9.68;;;;;;;13.63;81.52;97622.81;5071014;28;20048;-60
2022/09/15 06:59:30;;;;;;;12.70;8.90;;;;;;;13.64;81.67;97627.84;5070728;28;20119;-62
2022/09/15 07:01:56;;;;;;;11.10;8.77;;;;;;;13.67;81.24;97623.78;5068981;28;20148;-60
2022/09/15 07:04:22;;;;;;;11.90;8.25;;;;;;;13.63;80.97;97638.78;5070415;28;20169;-61
2022/09/15 07:06:49;;;;;;;11.00;8.30;;;;;;;13.67;81.71;97636.31;5069105;28;20118;-62
2022/09/15 07:09:15;;;;;;;11.48;8.63;;;;;;;13.73;81.80;97632.44;5070169;28;20501;-61
2022/09/15 07:11:41;;;;;;;11.35;8.48;;;;;;;13.74;81.61;97634.03;5069211;28;20048;-61
2022/09/15 07:14:06;;;;;;;11.93;8.65;;;;;;;13.80;80.71;97638.16;5070331;28;20033;-61
2022/09/15 07:16:32;;;;;;;10.98;8.25;;;;;;;13.92;80.55;97627.75;5076858;28;20098;-61
2022/09/15 07:19:00;;;;;;;10.23;7.57;;;;;;;14.08;79.72;97644.94;5078676;28;20051;-60
2022/09/15 07:21:26;;;;;;;9.90;7.85;;;;;;;14.09;81.12;97637.75;5079677;28;20079;-61
2022/09/15 07:23:55;;;;;;;10.15;7.82;;;;;;;14.02;79.81;97635.50;5079405;28;20064;-60
2022/09/15 07:26:23;;;;;;;10.95;7.65;;;;;;;14.09;80.46;97629.78;5078288;28;20100;-62
2022/09/15 07:28:51;;;;;;;10.15;7.88;;;;;;;14.15;80.05;97633.88;5080161;28;20043;-61
2022/09/15 07:31:18;;;;;;;12.90;7.97;;;;;;;14.15;80.34;97631.22;5080063;28;20193;-61
2022/09/15 07:33:46;;;;;;;11.20;7.88;;;;;;;14.16;79.94;97638.13;5083136;28;20123;-61
2022/09/15 07:36:12;;;;;;;10.85;8.52;;;;;;;14.17;80.95;97630.91;5091062;28;20585;-61
2022/09/15 07:38:41;;;;;;;9.95;7.72;;;;;;;14.23;80.19;97633.13;5092177;28;20055;-62
2022/09/15 07:41:12;;;;;;;11.85;8.23;;;;;;;14.18;80.16;97630.63;5092868;28;20068;-61
2022/09/15 07:43:38;;;;;;;9.70;7.60;;;;;;;14.36;79.52;97636.84;5087534;28;20039;-60
2022/09/15 07:46:04;;;;;;;11.40;7.72;;;;;;;14.41;78.05;97628.72;5081426;28;20040;-60
2022/09/15 07:48:30;;;;;;;8.80;7.30;;;;;;;14.27;78.16;97636.78;5081559;28;20039;-60
2022/09/15 07:50:58;;;;;;;10.65;7.72;;;;;;;14.17;78.46;97637.00;5087880;28;20121;-59
2022/09/15 07:53:26;;;;;;;11.73;7.38;;;;;;;14.25;78.62;97638.97;5093474;28;20071;-60
2022/09/15 07:55:53;;;;;;;11.05;7.20;;;;;;;14.43;78.07;97641.72;5093687;28;20109;-60
2022/09/15 07:58:19;;;;;;;9.48;7.82;;;;;;;14.47;77.53;97640.03;5057455;28;20039;-59
2022/09/15 08:00:46;;;;;;;9.20;7.30;;;;;;;14.55;77.66;97639.31;5090398;28;20135;-60
2022/09/15 08:03:12;;;;;;;12.00;7.38;;;;;;;14.60;76.81;97651.75;5091231;28;20040;-60
2022/09/15 08:05:38;;;;;;;11.82;7.80;;;;;;;14.63;75.99;97643.13;5093581;28;20063;-59
2022/09/15 08:08:04;;;;;;;11.13;8.15;;;;;;;14.62;77.00;97642.34;5091021;28;20041;-61
2022/09/15 08:10:30;;;;;;;10.85;7.85;;;;;;;14.74;76.42;97647.91;5093405;28;20052;-61
2022/09/15 08:12:57;;;;;;;10.75;7.85;;;;;;;14.77;76.50;97649.16;5092898;28;20047;-61
2022/09/15 08:15:24;;;;;;;8.38;7.30;;;;;;;14.89;76.24;97646.72;5092725;28;20481;-60
2022/09/15 08:17:50;;;;;;;12.00;8.30;;;;;;;14.91;75.79;97646.38;5083589;28;20070;-62
2022/09/15 08:20:16;;;;;;;10.07;7.18;;;;;;;14.90;75.35;97650.16;5092012;28;20052;-60
2022/09/15 08:22:44;;;;;;;11.40;8.30;;;;;;;14.93;75.88;97642.31;5090552;28;20127;-61
2022/09/15 08:25:11;;;;;;;9.43;7.82;;;;;;;15.00;74.93;97644.56;5092559;28;20036;-62
2022/09/15 08:27:36;;;;;;;11.65;7.88;;;;;;;15.06;74.85;97646.00;5092490;28;20043;-61
2022/09/15 08:30:04;;;;;;;10.30;7.95;;;;;;;15.12;75.49;97650.09;5092148;28;20089;-61
2022/09/15 08:32:29;;;;;;;9.00;7.35;;;;;;;15.24;74.99;97646.84;5080378;28;20041;-61
2022/09/15 08:34:55;;;;;;;11.38;7.75;;;;;;;15.23;74.93;97645.25;5072425;28;20393;-61
2022/09/15 08:37:21;;;;;;;9.80;6.90;;;;;;;15.32;73.97;97645.25;5071419;28;20040;-60
2022/09/15 08:39:46;;;;;;;8.73;7.72;;;;;;;15.37;73.86;97653.91;5072588;28;20036;-60
2022/09/15 08:42:17;;;;;;;12.23;8.30;;;;;;;15.49;73.75;97645.31;5071613;28;20045;-62
2022/09/15 08:45:12;;;;;;;10.93;8.07;;;;;;;15.47;73.58;97647.53;5054266;28;20074;-61
2022/09/15 08:47:44;;;;;;;9.48;6.43;;;;;;;15.31;73.99;97652.50;5052949;28;20052;-61
2022/09/15 08:50:29;;;;;;;10.85;6.88;;;;;;;15.14;74.29;97649.78;5071937;28;20094;-63
2022/09/15 08:52:58;;;;;;;11.70;7.50;;;;;;;15.15;75.31;97651.34;5052925;28;20432;-61
2022/09/15 08:55:47;;;;;;;9.80;7.70;;;;;;;15.11;74.96;97650.38;5071331;28;20568;-60
2022/09/15 08:58:16;;;;;;;11.05;7.30;;;;;;;15.07;74.61;97652.13;5063511;28;20514;-61
2022/09/15 09:00:43;;;;;;;8.60;6.43;;;;;;;15.04;75.08;97653.50;5054174;28;20045;-61
2022/09/15 09:03:52;;;;;;;9.38;7.22;;;;;;;15.02;74.66;97652.25;5056337;28;20040;-62
2022/09/15 09:06:44;;;;;;;9.18;6.88;;;;;;;14.95;75.19;97647.34;5011435;28;20041;-62
2022/09/15 09:09:24;;;;;;;8.45;6.68;;;;;;;14.80;75.31;97653.09;5070786;28;20139;-61
2022/09/15 09:11:55;;;;;;;10.52;6.90;;;;;;;14.73;75.89;97658.84;5071158;28;20047;-61
2022/09/15 09:14:41;;;;;;;9.27;5.85;;;;;;;14.67;76.06;97660.88;5052956;28;20040;-62
2022/09/15 09:17:30;;;;;;;9.13;6.63;;;;;;;14.67;76.51;97660.88;5052638;28;20616;-62
2022/09/15 09:20:41;;;;;;;9.13;6.38;;;;;;;14.67;76.19;97662.75;5050445;28;20059;-62
2022/09/15 09:23:11;;;;;;;9.18;6.60;;;;;;;14.62;76.46;97662.88;5053740;28;20053;-60
2022/09/15 09:25:37;;;;;;;10.73;7.05;;;;;;;14.64;75.95;97669.47;5069550;28;20051;-61
2022/09/15 09:28:05;;;;;;;11.27;6.72;;;;;;;14.58;76.87;97665.38;5070337;28;20048;-61
2022/09/15 09:30:32;;;;;;;17.23;10.93;;;;;;;14.53;77.59;97668.19;5070823;28;20059;-63
2022/09/15 09:33:17;;;;;;;11.73;7.63;;;;;;;14.47;77.37;97666.69;5053099;28;20068;-62
2022/09/15 09:35:44;;;;;;;10.18;7.15;;;;;;;14.47;77.92;97670.16;5071503;28;20055;-61
2022/09/15 09:38:39;;;;;;;9.55;6.43;;;;;;;14.40;78.11;97667.13;5069472;28;20105;-61
2022/09/15 09:41:14;;;;;;;9.32;6.38;;;;;;;14.38;78.15;97673.84;5071423;28;20131;-62
2022/09/15 09:43:45;;;;;;;10.10;7.00;;;;;;;14.37;77.66;97678.38;5068780;28;20045;-60
2022/09/15 09:46:15;;;;;;;8.77;6.40;;;;;;;14.27;78.51;97673.31;5069491;28;20131;-62
2022/09/15 09:48:48;;;;;;;10.15;6.53;;;;;;;14.19;78.30;97671.38;5071497;28;20056;-61
2022/09/15 09:51:45;;;;;;;12.60;6.68;;;;;;;14.20;78.91;97683.59;5070192;28;20413;-60
2022/09/15 09:54:15;;;;;;;11.82;7.00;;;;;;;14.21;79.33;97672.66;5067149;28;20403;-61
2022/09/15 09:56:42;;;;;;;10.63;6.97;;;;;;;14.26;78.67;97675.16;5069233;28;20052;-61
2022/09/15 09:59:27;;;;;;;13.13;7.63;;;;;;;14.28;77.72;97683.66;5069355;28;20033;-61
2022/09/15 10:02:11;;;;;;;14.93;8.95;;;;;;;14.24;78.55;97681.91;5070114;28;20045;-61
2022/09/15 10:04:38;;;;;;;11.07;6.93;;;;;;;14.23;78.56;97689.09;5070948;28;20040;-62
2022/09/15 10:07:04;;;;;;;10.48;6.53;;;;;;;14.23;78.88;97688.31;5069760;28;20120;-65
2022/09/15 10:09:30;;;;;;;9.30;6.35;;;;;;;14.18;78.76;97685.78;5069914;28;20052;-60
2022/09/15 10:11:59;;;;;;;9.65;6.72;;;;;;;14.11;79.34;97694.19;5071056;28;20044;-60
2022/09/15 10:14:39;;;;;;;14.35;7.03;;;;;;;14.12;78.84;97687.78;5052810;28;20037;-63
2022/09/15 10:17:11;;;;;;;10.15;6.22;;;;;;;14.20;79.04;97683.59;5068738;28;20110;-64
2022/09/15 10:19:57;;;;;;;6.70;5.20;;;;;;;14.34;78.68;97686.22;5075486;28;20056;-66
2022/09/15 10:22:27;;;;;;;9.93;6.60;;;;;;;14.41;77.95;97686.56;5082617;28;20576;-66
2022/09/15 10:24:53;;;;;;;7.78;5.75;;;;;;;14.44;77.68;97691.28;5089712;28;20079;-67
2022/09/15 10:27:24;;;;;;;10.65;6.32;;;;;;;14.41;77.65;97690.03;5091167;28;20075;-65
2022/09/15 10:29:50;;;;;;;9.45;6.40;;;;;;;14.38;77.07;97695.94;5089652;28;20047;-62
2022/09/15 10:32:21;;;;;;;9.25;6.18;;;;;;;14.26;77.82;97693.03;5088947;28;20037;-64
2022/09/15 10:34:50;;;;;;;9.23;6.07;;;;;;;14.32;77.98;97705.16;5079276;28;20032;-63
2022/09/15 10:37:32;;;;;;;9.65;6.25;;;;;;;14.43;76.93;97698.50;5079044;28;20054;-63
2022/09/15 10:40:00;;;;;;;10.23;6.05;;;;;;;14.58;76.41;97689.38;5081010;28;20073;-62
2022/09/15 10:42:52;;;;;;;9.85;6.15;;;;;;;14.72;76.00;97695.41;5079429;28;20040;-62
2022/09/15 10:45:25;;;;;;;9.80;5.63;;;;;;;14.92;75.14;97701.34;5077428;28;20041;-64
2022/09/15 10:48:01;;;;;;;6.95;4.93;;;;;;;14.99;73.65;97693.66;5078637;28;20048;-64
2022/09/15 10:50:42;;;;;;;6.35;5.13;;;;;;;15.06;73.63;97696.69;5079783;28;20105;-62
2022/09/15 10:53:45;;;;;;;7.40;5.30;;;;;;;15.05;73.77;97702.31;5068827;28;20044;-61
2022/09/15 10:56:23;;;;;;;7.65;5.57;;;;;;;15.08;73.94;97702.50;5027822;28;20135;-63
2022/09/15 10:59:15;;;;;;;6.63;4.82;;;;;;;14.98;74.00;97702.78;5070013;28;20449;-64
2022/09/15 11:02:13;;;;;;;6.28;4.22;;;;;;;14.92;73.94;97715.44;5051895;28;20084;-63
2022/09/15 11:04:57;;;;;;;5.57;3.85;;;;;;;14.90;73.43;97709.63;5070088;28;20131;-64
2022/09/15 11:07:41;;;;;;;4.90;3.53;;;;;;;14.89;73.12;97717.94;5070438;28;20048;-64
2022/09/15 11:10:45;;;;;;;5.65;3.78;;;;;;;14.83;73.68;97721.84;5069150;28;20501;-65
2022/09/15 11:13:24;;;;;;;4.55;3.38;;;;;;;14.82;73.35;97721.03;5052555;28;20053;-64
2022/09/15 11:16:05;;;;;;;3.67;2.88;;;;;;;14.94;73.93;97718.63;5073002;28;20044;-65
2022/09/15 11:18:58;;;;;;;6.05;3.05;;;;;;;15.01;73.09;97725.38;5074124;28;20322;-65
2022/09/15 11:21:28;;;;;;;3.25;2.95;;;;;;;14.97;73.43;97727.84;5056211;28;20041;-65
2022/09/15 11:24:24;;;;;;;5.07;3.03;;;;;;;15.01;73.70;97725.38;5072401;28;20480;-64
2022/09/15 11:26:53;;;;;;;4.22;3.30;;;;;;;15.02;73.25;97725.06;5072398;28;20044;-65
2022/09/15 11:29:25;;;;;;;5.88;2.67;;;;;;;14.98;72.67;97729.44;5072383;28;20484;-65
2022/09/15 11:31:55;;;;;;;3.45;2.85;;;;;;;14.92;73.12;97725.34;5071770;28;20050;-64
2022/09/15 11:34:27;;;;;;;4.80;3.63;;;;;;;14.84;73.59;97729.53;5084846;28;20040;-65
2022/09/15 11:37:16;;;;;;;4.93;3.53;;;;;;;14.75;74.47;97726.03;5080976;28;20044;-65
2022/09/15 11:40:16;;;;;;;5.55;3.90;;;;;;;14.81;74.57;97724.03;5081166;28;20547;-66
2022/09/15 11:42:50;;;;;;;5.35;4.03;;;;;;;14.75;73.68;97729.47;5029199;28;20045;-66